sensor_id;sensor_type;location;lat;lon;timestamp;pressure;altitude;pressure_sealevel;temperature;humidity
25084;BME280;13075;55.682;37.564;2022-09-09T00:09:53;100269.41;;;9.25;100.00
25084;BME280;13075;55.682;37.564;2022-09-09T00:14:52;100281.75;;;9.26;100.00
25084;BME280;13075;55.682;37.564;2022-09-09T00:17:47;100274.75;;;9.25;100.00
25084;BME280;13075;55.682;37.564;2022-09-09T00:20:32;100276.25;;;9.28;100.00
25084;BME280;13075;55.682;37.564;2022-09-09T00:23:29;100275.59;;;9.26;100.00
25084;BME280;13075;55.682;37.564;2022-09-09T00:26:16;100273.75;;;9.26;100.00
25084;BME280;13075;55.682;37.564;2022-09-09T00:29:04;100271.41;;;9.23;100.00
25084;BME280;13075;55.682;37.564;2022-09-09T00:31:34;100288.63;;;9.21;100.00
25084;BME280;13075;55.682;37.564;2022-09-09T00:36:35;100282.34;;;9.06;100.00
25084;BME280;13075;55.682;37.564;2022-09-09T00:39:03;100284.16;;;9.13;100.00
25084;BME280;13075;55.682;37.564;2022-09-09T00:44:03;100292.16;;;9.13;100.00
25084;BME280;13075;55.682;37.564;2022-09-09T00:47:09;100294.34;;;9.02;100.00
25084;BME280;13075;55.682;37.564;2022-09-09T00:49:54;100294.69;;;8.99;100.00
25084;BME280;13075;55.682;37.564;2022-09-09T00:55:20;100292.66;;;9.01;100.00
25084;BME280;13075;55.682;37.564;2022-09-09T00:57:51;100302.69;;;8.99;100.00
25084;BME280;13075;55.682;37.564;2022-09-09T01:05:42;100308.81;;;9.15;100.00
25084;BME280;13075;55.682;37.564;2022-09-09T01:10:58;100292.66;;;9.01;100.00
25084;BME280;13075;55.682;37.564;2022-09-09T01:13:33;100311.00;;;9.04;100.00
25084;BME280;13075;55.682;37.564;2022-09-09T01:16:04;100304.88;;;9.03;100.00
25084;BME280;13075;55.682;37.564;2022-09-09T01:18:40;100306.69;;;9.03;100.00
25084;BME280;13075;55.682;37.564;2022-09-09T01:26:46;100321.38;;;8.99;100.00
25084;BME280;13075;55.682;37.564;2022-09-09T01:29:22;100319.88;;;8.96;100.00
25084;BME280;13075;55.682;37.564;2022-09-09T01:31:56;100326.72;;;8.99;100.00
25084;BME280;13075;55.682;37.564;2022-09-09T01:34:24;100320.25;;;8.85;100.00
25084;BME280;13075;55.682;37.564;2022-09-09T01:37:03;100323.25;;;8.90;100.00
25084;BME280;13075;55.682;37.564;2022-09-09T01:39:32;100327.22;;;8.94;100.00
25084;BME280;13075;55.682;37.564;2022-09-09T01:42:06;100330.41;;;8.90;100.00
25084;BME280;13075;55.682;37.564;2022-09-09T01:44:34;100331.91;;;8.92;100.00
25084;BME280;13075;55.682;37.564;2022-09-09T01:47:01;100335.56;;;8.91;100.00
25084;BME280;13075;55.682;37.564;2022-09-09T01:49:27;100338.09;;;8.93;100.00
25084;BME280;13075;55.682;37.564;2022-09-09T01:51:55;100347.91;;;8.92;100.00
25084;BME280;13075;55.682;37.564;2022-09-09T01:54:30;100341.63;;;8.77;100.00
25084;BME280;13075;55.682;37.564;2022-09-09T02:00:09;100352.94;;;8.79;100.00
25084;BME280;13075;55.682;37.564;2022-09-09T02:08:15;100357.94;;;8.74;100.00
25084;BME280;13075;55.682;37.564;2022-09-09T02:10:54;100351.63;;;8.67;100.00
25084;BME280;13075;55.682;37.564;2022-09-09T02:13:35;100355.63;;;8.71;100.00
25084;BME280;13075;55.682;37.564;2022-09-09T02:16:58;100356.47;;;8.63;100.00
25084;BME280;13075;55.682;37.564;2022-09-09T02:21:59;100366.78;;;8.66;100.00
25084;BME280;13075;55.682;37.564;2022-09-09T02:24:29;100355.28;;;8.66;100.00
25084;BME280;13075;55.682;37.564;2022-09-09T02:27:10;100361.47;;;8.58;100.00
25084;BME280;13075;55.682;37.564;2022-09-09T02:29:40;100370.63;;;8.64;100.00
25084;BME280;13075;55.682;37.564;2022-09-09T02:32:15;100370.31;;;8.67;100.00
25084;BME280;13075;55.682;37.564;2022-09-09T02:34:46;100371.81;;;8.69;100.00
25084;BME280;13075;55.682;37.564;2022-09-09T02:37:15;100370.78;;;8.70;100.00
25084;BME280;13075;55.682;37.564;2022-09-09T02:39:46;100368.13;;;8.62;100.00
25084;BME280;13075;55.682;37.564;2022-09-09T02:42:15;100369.97;;;8.62;100.00
25084;BME280;13075;55.682;37.564;2022-09-09T02:44:42;100375.31;;;8.62;100.00
25084;BME280;13075;55.682;37.564;2022-09-09T02:50:17;100379.13;;;8.51;100.00
25084;BME280;13075;55.682;37.564;2022-09-09T02:52:54;100399.97;;;8.48;100.00
25084;BME280;13075;55.682;37.564;2022-09-09T02:55:51;100389.94;;;8.34;100.00
25084;BME280;13075;55.682;37.564;2022-09-09T02:58:22;100403.78;;;8.37;100.00
25084;BME280;13075;55.682;37.564;2022-09-09T03:00:59;100401.63;;;8.33;100.00
25084;BME280;13075;55.682;37.564;2022-09-09T03:03:27;100396.94;;;8.35;100.00
25084;BME280;13075;55.682;37.564;2022-09-09T03:05:53;100403.63;;;8.31;100.00
25084;BME280;13075;55.682;37.564;2022-09-09T03:08:18;100403.88;;;8.20;100.00
25084;BME280;13075;55.682;37.564;2022-09-09T03:10:44;100409.03;;;8.05;100.00
25084;BME280;13075;55.682;37.564;2022-09-09T03:13:13;100415.16;;;8.05;100.00
25084;BME280;13075;55.682;37.564;2022-09-09T03:15:41;100416.50;;;8.01;100.00
25084;BME280;13075;55.682;37.564;2022-09-09T03:18:11;100411.63;;;7.89;100.00
25084;BME280;13075;55.682;37.564;2022-09-09T03:20:36;100414.66;;;7.94;100.00
25084;BME280;13075;55.682;37.564;2022-09-09T03:23:02;100419.13;;;7.93;100.00
25084;BME280;13075;55.682;37.564;2022-09-09T03:25:28;100419.81;;;7.95;100.00
25084;BME280;13075;55.682;37.564;2022-09-09T03:27:55;100422.97;;;7.91;100.00
25084;BME280;13075;55.682;37.564;2022-09-09T03:30:24;100427.09;;;7.85;100.00
25084;BME280;13075;55.682;37.564;2022-09-09T03:32:50;100431.59;;;7.85;100.00
25084;BME280;13075;55.682;37.564;2022-09-09T03:35:16;100434.91;;;7.79;100.00
25084;BME280;13075;55.682;37.564;2022-09-09T03:37:42;100435.56;;;7.81;100.00
25084;BME280;13075;55.682;37.564;2022-09-09T03:40:10;100432.56;;;7.76;100.00
25084;BME280;13075;55.682;37.564;2022-09-09T03:42:37;100438.38;;;7.71;100.00
25084;BME280;13075;55.682;37.564;2022-09-09T03:45:07;100442.06;;;7.78;100.00
25084;BME280;13075;55.682;37.564;2022-09-09T03:47:36;100448.59;;;7.84;100.00
25084;BME280;13075;55.682;37.564;2022-09-09T03:50:06;100448.09;;;7.88;100.00
25084;BME280;13075;55.682;37.564;2022-09-09T03:52:36;100446.41;;;7.87;100.00
25084;BME280;13075;55.682;37.564;2022-09-09T03:55:03;100456.41;;;7.85;100.00
25084;BME280;13075;55.682;37.564;2022-09-09T03:57:29;100450.28;;;7.93;100.00
25084;BME280;13075;55.682;37.564;2022-09-09T03:59:55;100451.47;;;7.98;100.00
25084;BME280;13075;55.682;37.564;2022-09-09T04:02:21;100451.66;;;8.05;100.00
25084;BME280;13075;55.682;37.564;2022-09-09T04:04:47;100451.53;;;8.14;100.00
25084;BME280;13075;55.682;37.564;2022-09-09T04:07:13;100465.50;;;8.16;100.00
25084;BME280;13075;55.682;37.564;2022-09-09T04:09:39;100460.53;;;8.22;100.00
25084;BME280;13075;55.682;37.564;2022-09-09T04:12:05;100458.75;;;8.30;100.00
25084;BME280;13075;55.682;37.564;2022-09-09T04:14:33;100451.44;;;8.32;100.00
25084;BME280;13075;55.682;37.564;2022-09-09T04:16:58;100463.28;;;8.38;100.00
25084;BME280;13075;55.682;37.564;2022-09-09T04:19:25;100453.28;;;8.40;100.00
25084;BME280;13075;55.682;37.564;2022-09-09T04:21:51;100465.78;;;8.47;100.00
25084;BME280;13075;55.682;37.564;2022-09-09T04:24:18;100461.31;;;8.56;100.00
25084;BME280;13075;55.682;37.564;2022-09-09T04:26:44;100464.13;;;8.62;100.00
25084;BME280;13075;55.682;37.564;2022-09-09T04:29:12;100463.66;;;8.67;100.00
25084;BME280;13075;55.682;37.564;2022-09-09T04:31:37;100455.16;;;8.71;100.00
25084;BME280;13075;55.682;37.564;2022-09-09T04:34:08;100462.97;;;8.73;100.00
25084;BME280;13075;55.682;37.564;2022-09-09T04:36:35;100462.84;;;8.83;100.00
25084;BME280;13075;55.682;37.564;2022-09-09T04:39:03;100460.16;;;8.91;100.00
25084;BME280;13075;55.682;37.564;2022-09-09T04:41:29;100462.34;;;9.03;100.00
25084;BME280;13075;55.682;37.564;2022-09-09T04:43:57;100454.31;;;9.19;100.00
25084;BME280;13075;55.682;37.564;2022-09-09T04:46:23;100462.16;;;9.29;100.00
25084;BME280;13075;55.682;37.564;2022-09-09T04:48:49;100460.78;;;9.41;100.00
25084;BME280;13075;55.682;37.564;2022-09-09T04:51:16;100458.56;;;9.53;100.00
25084;BME280;13075;55.682;37.564;2022-09-09T04:53:44;100467.41;;;9.61;100.00
25084;BME280;13075;55.682;37.564;2022-09-09T04:56:14;100465.06;;;9.66;100.00
25084;BME280;13075;55.682;37.564;2022-09-09T04:58:44;100459.31;;;10.32;100.00
25084;BME280;13075;55.682;37.564;2022-09-09T05:01:13;100456.41;;;10.42;100.00
25084;BME280;13075;55.682;37.564;2022-09-09T05:03:42;100450.28;;;10.79;100.00
25084;BME280;13075;55.682;37.564;2022-09-09T05:06:16;100459.06;;;10.42;100.00
25084;BME280;13075;55.682;37.564;2022-09-09T05:08:44;100463.09;;;10.38;100.00
25084;BME280;13075;55.682;37.564;2022-09-09T05:11:18;100458.28;;;10.33;100.00
25084;BME280;13075;55.682;37.564;2022-09-09T05:13:45;100466.59;;;10.38;100.00
25084;BME280;13075;55.682;37.564;2022-09-09T05:16:12;100460.66;;;11.34;100.00
25084;BME280;13075;55.682;37.564;2022-09-09T05:18:39;100467.28;;;11.08;100.00
25084;BME280;13075;55.682;37.564;2022-09-09T05:21:06;100458.09;;;11.03;100.00
25084;BME280;13075;55.682;37.564;2022-09-09T05:23:34;100467.25;;;10.94;100.00
25084;BME280;13075;55.682;37.564;2022-09-09T05:26:00;100472.06;;;11.13;100.00
25084;BME280;13075;55.682;37.564;2022-09-09T05:28:26;100477.94;;;10.94;100.00
25084;BME280;13075;55.682;37.564;2022-09-09T05:30:59;100468.72;;;10.96;100.00
25084;BME280;13075;55.682;37.564;2022-09-09T05:33:35;100465.75;;;10.91;100.00
25084;BME280;13075;55.682;37.564;2022-09-09T05:36:02;100464.69;;;10.78;100.00
25084;BME280;13075;55.682;37.564;2022-09-09T05:38:30;100466.72;;;10.76;100.00
25084;BME280;13075;55.682;37.564;2022-09-09T05:40:59;100465.03;;;10.75;100.00
25084;BME280;13075;55.682;37.564;2022-09-09T05:43:26;100463.25;;;10.90;100.00
25084;BME280;13075;55.682;37.564;2022-09-09T05:46:07;100471.28;;;10.90;100.00
25084;BME280;13075;55.682;37.564;2022-09-09T05:48:36;100464.94;;;11.05;100.00
25084;BME280;13075;55.682;37.564;2022-09-09T05:51:04;100466.00;;;11.19;100.00
25084;BME280;13075;55.682;37.564;2022-09-09T05:53:31;100464.47;;;11.39;100.00
25084;BME280;13075;55.682;37.564;2022-09-09T05:58:32;100459.91;;;11.77;100.00
25084;BME280;13075;55.682;37.564;2022-09-09T06:01:11;100467.66;;;12.52;100.00
25084;BME280;13075;55.682;37.564;2022-09-09T06:03:41;100465.75;;;12.67;100.00
25084;BME280;13075;55.682;37.564;2022-09-09T06:06:12;100458.41;;;15.33;100.00
25084;BME280;13075;55.682;37.564;2022-09-09T06:08:40;100455.72;;;15.66;100.00
25084;BME280;13075;55.682;37.564;2022-09-09T06:11:09;100462.34;;;14.78;100.00
25084;BME280;13075;55.682;37.564;2022-09-09T06:13:35;100459.47;;;14.19;100.00
25084;BME280;13075;55.682;37.564;2022-09-09T06:16:05;100462.53;;;14.16;100.00
25084;BME280;13075;55.682;37.564;2022-09-09T06:18:32;100475.59;;;14.80;100.00
25084;BME280;13075;55.682;37.564;2022-09-09T06:21:00;100479.06;;;14.54;100.00
25084;BME280;13075;55.682;37.564;2022-09-09T06:23:27;100471.03;;;14.87;100.00
25084;BME280;13075;55.682;37.564;2022-09-09T06:26:09;100469.50;;;16.60;80.65
25084;BME280;13075;55.682;37.564;2022-09-09T06:28:36;100469.47;;;16.22;96.81
25084;BME280;13075;55.682;37.564;2022-09-09T06:31:04;100479.03;;;18.65;69.97
25084;BME280;13075;55.682;37.564;2022-09-09T06:33:31;100462.44;;;18.07;64.79
25084;BME280;13075;55.682;37.564;2022-09-09T06:35:57;100477.16;;;16.25;73.76
25084;BME280;13075;55.682;37.564;2022-09-09T06:38:24;100470.66;;;15.36;89.73
25084;BME280;13075;55.682;37.564;2022-09-09T06:40:57;100483.03;;;14.71;91.25
25084;BME280;13075;55.682;37.564;2022-09-09T06:43:25;100481.16;;;14.18;100.00
25084;BME280;13075;55.682;37.564;2022-09-09T06:46:01;100487.31;;;13.99;100.00
25084;BME280;13075;55.682;37.564;2022-09-09T06:48:28;100488.25;;;13.91;100.00
25084;BME280;13075;55.682;37.564;2022-09-09T06:51:21;100494.72;;;13.97;100.00
25084;BME280;13075;55.682;37.564;2022-09-09T06:53:51;100504.22;;;13.93;100.00
25084;BME280;13075;55.682;37.564;2022-09-09T06:56:32;100493.78;;;14.11;94.79
25084;BME280;13075;55.682;37.564;2022-09-09T06:59:03;100503.69;;;14.51;95.02
25084;BME280;13075;55.682;37.564;2022-09-09T07:01:33;100497.75;;;16.13;79.07
25084;BME280;13075;55.682;37.564;2022-09-09T07:04:03;100495.31;;;19.59;60.18
25084;BME280;13075;55.682;37.564;2022-09-09T07:06:35;100482.66;;;23.63;44.20
25084;BME280;13075;55.682;37.564;2022-09-09T07:09:07;100491.28;;;19.97;47.98
25084;BME280;13075;55.682;37.564;2022-09-09T07:11:41;100494.50;;;19.59;46.92
25084;BME280;13075;55.682;37.564;2022-09-09T07:14:08;100496.88;;;17.82;53.00
25084;BME280;13075;55.682;37.564;2022-09-09T07:16:34;100507.50;;;16.65;58.59
25084;BME280;13075;55.682;37.564;2022-09-09T07:19:03;100511.53;;;17.74;55.14
25084;BME280;13075;55.682;37.564;2022-09-09T07:21:31;100501.88;;;17.60;54.78
25084;BME280;13075;55.682;37.564;2022-09-09T07:23:57;100495.91;;;18.13;54.05
25084;BME280;13075;55.682;37.564;2022-09-09T07:26:26;100515.97;;;16.75;59.51
25084;BME280;13075;55.682;37.564;2022-09-09T07:28:53;100521.91;;;15.82;63.26
25084;BME280;13075;55.682;37.564;2022-09-09T07:31:22;100517.16;;;15.71;65.97
25084;BME280;13075;55.682;37.564;2022-09-09T07:33:50;100524.81;;;16.57;65.41
25084;BME280;13075;55.682;37.564;2022-09-09T07:36:19;100522.75;;;16.53;61.65
25084;BME280;13075;55.682;37.564;2022-09-09T07:38:50;100537.47;;;15.73;60.69
25084;BME280;13075;55.682;37.564;2022-09-09T07:41:30;100535.16;;;15.18;61.97
25084;BME280;13075;55.682;37.564;2022-09-09T07:43:57;100532.78;;;14.82;65.54
25084;BME280;13075;55.682;37.564;2022-09-09T07:46:26;100535.91;;;14.79;67.97
25084;BME280;13075;55.682;37.564;2022-09-09T07:48:54;100543.97;;;14.66;71.33
25084;BME280;13075;55.682;37.564;2022-09-09T07:51:28;100546.63;;;14.59;69.48
25084;BME280;13075;55.682;37.564;2022-09-09T07:53:57;100550.38;;;14.65;68.23
25084;BME280;13075;55.682;37.564;2022-09-09T07:56:24;100551.28;;;14.98;67.88
25084;BME280;13075;55.682;37.564;2022-09-09T07:58:52;100548.19;;;15.08;70.60
25084;BME280;13075;55.682;37.564;2022-09-09T08:01:33;100545.38;;;15.55;63.74
25084;BME280;13075;55.682;37.564;2022-09-09T08:04:03;100545.38;;;15.68;65.10
25084;BME280;13075;55.682;37.564;2022-09-09T08:06:39;100544.09;;;15.31;72.78
25084;BME280;13075;55.682;37.564;2022-09-09T08:09:08;100555.03;;;15.10;73.74
25084;BME280;13075;55.682;37.564;2022-09-09T08:11:36;100552.75;;;15.01;71.32
25084;BME280;13075;55.682;37.564;2022-09-09T08:14:03;100556.47;;;14.86;71.37
25084;BME280;13075;55.682;37.564;2022-09-09T08:16:32;100548.53;;;14.72;73.04
25084;BME280;13075;55.682;37.564;2022-09-09T08:18:59;100552.13;;;14.98;75.42
25084;BME280;13075;55.682;37.564;2022-09-09T08:21:27;100552.56;;;15.15;70.44
25084;BME280;13075;55.682;37.564;2022-09-09T08:23:57;100553.63;;;15.34;71.58
25084;BME280;13075;55.682;37.564;2022-09-09T08:26:25;100548.44;;;15.98;68.45
25084;BME280;13075;55.682;37.564;2022-09-09T08:28:54;100545.78;;;15.52;69.00
25084;BME280;13075;55.682;37.564;2022-09-09T08:31:24;100555.69;;;15.19;74.42
25084;BME280;13075;55.682;37.564;2022-09-09T08:33:51;100558.75;;;14.96;80.01
25084;BME280;13075;55.682;37.564;2022-09-09T08:36:22;100556.59;;;14.65;80.81
25084;BME280;13075;55.682;37.564;2022-09-09T08:38:49;100564.09;;;14.35;81.05
25084;BME280;13075;55.682;37.564;2022-09-09T08:44:28;100556.66;;;14.03;76.96
25084;BME280;13075;55.682;37.564;2022-09-09T08:49:58;100557.69;;;16.92;64.33
25084;BME280;13075;55.682;37.564;2022-09-09T08:57:54;100553.56;;;17.21;52.75
25084;BME280;13075;55.682;37.564;2022-09-09T09:00:21;100555.22;;;16.33;57.41
25084;BME280;13075;55.682;37.564;2022-09-09T09:05:46;100575.22;;;15.40;68.83
25084;BME280;13075;55.682;37.564;2022-09-09T09:08:25;100579.53;;;15.22;72.61
25084;BME280;13075;55.682;37.564;2022-09-09T09:10:56;100582.63;;;14.99;76.43
25084;BME280;13075;55.682;37.564;2022-09-09T09:13:51;100578.25;;;14.91;73.05
25084;BME280;13075;55.682;37.564;2022-09-09T09:16:23;100577.81;;;14.94;73.24
25084;BME280;13075;55.682;37.564;2022-09-09T09:18:53;100577.53;;;15.63;69.17
25084;BME280;13075;55.682;37.564;2022-09-09T09:24:00;100562.34;;;16.14;65.45
25084;BME280;13075;55.682;37.564;2022-09-09T09:26:34;100571.28;;;15.95;62.90
25084;BME280;13075;55.682;37.564;2022-09-09T09:29:10;100561.72;;;15.93;61.58
25084;BME280;13075;55.682;37.564;2022-09-09T09:31:37;100565.50;;;15.92;64.93
25084;BME280;13075;55.682;37.564;2022-09-09T09:34:03;100569.63;;;15.35;68.54
25084;BME280;13075;55.682;37.564;2022-09-09T09:36:52;100574.22;;;14.68;69.09
25084;BME280;13075;55.682;37.564;2022-09-09T09:39:33;100574.03;;;14.76;73.63
25084;BME280;13075;55.682;37.564;2022-09-09T09:42:13;100570.28;;;14.29;75.82
25084;BME280;13075;55.682;37.564;2022-09-09T09:44:41;100565.16;;;14.07;81.61
25084;BME280;13075;55.682;37.564;2022-09-09T09:47:22;100571.84;;;13.83;84.27
25084;BME280;13075;55.682;37.564;2022-09-09T09:50:17;100552.56;;;16.20;65.60
25084;BME280;13075;55.682;37.564;2022-09-09T09:52:57;100548.22;;;18.67;51.82
25084;BME280;13075;55.682;37.564;2022-09-09T09:55:24;100545.00;;;19.60;48.41
25084;BME280;13075;55.682;37.564;2022-09-09T09:57:51;100554.38;;;18.20;51.44
25084;BME280;13075;55.682;37.564;2022-09-09T10:00:21;100560.03;;;16.82;53.41
25084;BME280;13075;55.682;37.564;2022-09-09T10:02:56;100556.50;;;16.17;57.74
25084;BME280;13075;55.682;37.564;2022-09-09T10:05:30;100565.91;;;15.82;62.67
25084;BME280;13075;55.682;37.564;2022-09-09T10:13:20;100571.41;;;15.02;69.42
25084;BME280;13075;55.682;37.564;2022-09-09T10:31:44;100577.63;;;14.49;76.87
25084;BME280;13075;55.682;37.564;2022-09-09T10:37:02;100582.25;;;14.61;76.95
25084;BME280;13075;55.682;37.564;2022-09-09T10:39:38;100579.75;;;15.33;71.96
25084;BME280;13075;55.682;37.564;2022-09-09T10:42:15;100561.75;;;15.86;66.04
25084;BME280;13075;55.682;37.564;2022-09-09T10:55:18;100574.00;;;15.63;60.25
25084;BME280;13075;55.682;37.564;2022-09-09T10:57:47;100565.09;;;15.69;59.59
25084;BME280;13075;55.682;37.564;2022-09-09T11:00:15;100570.03;;;15.32;61.33
25084;BME280;13075;55.682;37.564;2022-09-09T11:02:42;100585.50;;;14.97;60.38
25084;BME280;13075;55.682;37.564;2022-09-09T11:10:36;100572.22;;;14.96;60.12
25084;BME280;13075;55.682;37.564;2022-09-09T11:13:57;100557.81;;;15.49;58.67
25084;BME280;13075;55.682;37.564;2022-09-09T11:18:57;100573.38;;;15.54;61.57
25084;BME280;13075;55.682;37.564;2022-09-09T11:21:29;100578.72;;;15.34;66.05
25084;BME280;13075;55.682;37.564;2022-09-09T11:24:02;100586.97;;;15.07;68.85
25084;BME280;13075;55.682;37.564;2022-09-09T11:26:41;100582.97;;;14.89;71.90
25084;BME280;13075;55.682;37.564;2022-09-09T11:29:15;100580.28;;;14.83;71.53
25084;BME280;13075;55.682;37.564;2022-09-09T11:37:42;100575.78;;;15.03;65.78
25084;BME280;13075;55.682;37.564;2022-09-09T11:40:30;100582.00;;;15.04;67.46
25084;BME280;13075;55.682;37.564;2022-09-09T11:43:02;100581.84;;;15.25;66.37
25084;BME280;13075;55.682;37.564;2022-09-09T11:45:30;100570.44;;;15.29;64.05
25084;BME280;13075;55.682;37.564;2022-09-09T11:47:59;100570.91;;;15.66;63.53
25084;BME280;13075;55.682;37.564;2022-09-09T11:52:51;100560.72;;;15.94;63.70
25084;BME280;13075;55.682;37.564;2022-09-09T11:55:34;100567.94;;;16.06;63.85
25084;BME280;13075;55.682;37.564;2022-09-09T11:58:04;100564.84;;;15.96;58.85
25084;BME280;13075;55.682;37.564;2022-09-09T12:02:59;100571.75;;;15.66;61.77
25084;BME280;13075;55.682;37.564;2022-09-09T12:05:39;100566.53;;;15.51;58.76
25084;BME280;13075;55.682;37.564;2022-09-09T12:08:06;100563.84;;;15.84;60.34
25084;BME280;13075;55.682;37.564;2022-09-09T12:10:38;100569.84;;;15.80;59.27
25084;BME280;13075;55.682;37.564;2022-09-09T12:13:25;100557.38;;;15.85;59.83
25084;BME280;13075;55.682;37.564;2022-09-09T12:16:33;100557.81;;;15.82;58.26
25084;BME280;13075;55.682;37.564;2022-09-09T12:19:26;100566.75;;;15.56;62.38
25084;BME280;13075;55.682;37.564;2022-09-09T12:22:09;100564.47;;;15.47;65.00
25084;BME280;13075;55.682;37.564;2022-09-09T12:24:48;100572.06;;;15.24;66.67
25084;BME280;13075;55.682;37.564;2022-09-09T12:27:28;100566.47;;;15.12;65.39
25084;BME280;13075;55.682;37.564;2022-09-09T12:30:09;100569.75;;;15.08;69.72
25084;BME280;13075;55.682;37.564;2022-09-09T12:32:36;100571.00;;;15.05;72.32
25084;BME280;13075;55.682;37.564;2022-09-09T12:35:09;100562.34;;;15.29;67.43
25084;BME280;13075;55.682;37.564;2022-09-09T12:37:50;100563.56;;;15.33;67.10
25084;BME280;13075;55.682;37.564;2022-09-09T12:40:24;100558.19;;;15.33;65.09
25084;BME280;13075;55.682;37.564;2022-09-09T12:42:50;100560.50;;;15.49;67.77
25084;BME280;13075;55.682;37.564;2022-09-09T12:45:22;100568.41;;;15.57;67.18
25084;BME280;13075;55.682;37.564;2022-09-09T12:48:04;100570.69;;;15.61;64.48
25084;BME280;13075;55.682;37.564;2022-09-09T12:50:34;100573.38;;;15.67;65.07
25084;BME280;13075;55.682;37.564;2022-09-09T12:53:05;100565.72;;;15.51;62.13
25084;BME280;13075;55.682;37.564;2022-09-09T12:55:35;100559.66;;;15.42;63.02
25084;BME280;13075;55.682;37.564;2022-09-09T12:58:03;100566.72;;;15.37;62.08
25084;BME280;13075;55.682;37.564;2022-09-09T13:00:34;100560.06;;;15.39;65.30
25084;BME280;13075;55.682;37.564;2022-09-09T13:03:03;100564.81;;;15.24;64.34
25084;BME280;13075;55.682;37.564;2022-09-09T13:05:39;100562.94;;;15.18;63.25
25084;BME280;13075;55.682;37.564;2022-09-09T13:08:06;100561.47;;;15.16;63.78
25084;BME280;13075;55.682;37.564;2022-09-09T13:10:41;100557.34;;;15.13;63.74
25084;BME280;13075;55.682;37.564;2022-09-09T13:13:17;100567.25;;;14.99;69.00
25084;BME280;13075;55.682;37.564;2022-09-09T13:15:54;100561.19;;;14.84;67.78
25084;BME280;13075;55.682;37.564;2022-09-09T13:18:28;100570.00;;;14.59;71.65
25084;BME280;13075;55.682;37.564;2022-09-09T13:20:54;100563.09;;;14.43;76.72
25084;BME280;13075;55.682;37.564;2022-09-09T13:23:27;100572.56;;;14.32;76.50
25084;BME280;13075;55.682;37.564;2022-09-09T13:25:55;100565.78;;;14.43;80.79
25084;BME280;13075;55.682;37.564;2022-09-09T13:28:24;100570.31;;;14.36;79.19
25084;BME280;13075;55.682;37.564;2022-09-09T13:31:05;100569.53;;;14.14;79.54
25084;BME280;13075;55.682;37.564;2022-09-09T13:33:36;100561.66;;;14.06;79.71
25084;BME280;13075;55.682;37.564;2022-09-09T13:36:11;100558.31;;;14.04;80.64
25084;BME280;13075;55.682;37.564;2022-09-09T13:38:53;100574.03;;;14.01;84.51
25084;BME280;13075;55.682;37.564;2022-09-09T13:41:21;100563.66;;;13.98;82.68
25084;BME280;13075;55.682;37.564;2022-09-09T13:43:49;100562.03;;;14.03;85.69
25084;BME280;13075;55.682;37.564;2022-09-09T13:48:58;100562.63;;;13.71;82.68
25084;BME280;13075;55.682;37.564;2022-09-09T13:51:33;100569.63;;;13.65;84.77
25084;BME280;13075;55.682;37.564;2022-09-09T13:54:00;100571.50;;;13.65;84.09
25084;BME280;13075;55.682;37.564;2022-09-09T13:56:26;100571.06;;;13.68;85.65
25084;BME280;13075;55.682;37.564;2022-09-09T13:58:51;100562.25;;;13.74;91.90
25084;BME280;13075;55.682;37.564;2022-09-09T14:01:17;100562.22;;;13.67;95.19
25084;BME280;13075;55.682;37.564;2022-09-09T14:03:42;100559.91;;;13.64;92.50
25084;BME280;13075;55.682;37.564;2022-09-09T14:06:10;100558.94;;;13.72;94.58
25084;BME280;13075;55.682;37.564;2022-09-09T14:08:36;100558.94;;;13.72;95.51
25084;BME280;13075;55.682;37.564;2022-09-09T14:11:03;100564.06;;;13.67;94.92
25084;BME280;13075;55.682;37.564;2022-09-09T14:13:29;100558.94;;;13.72;93.35
25084;BME280;13075;55.682;37.564;2022-09-09T14:15:54;100564.09;;;13.73;94.95
25084;BME280;13075;55.682;37.564;2022-09-09T14:18:20;100556.84;;;13.74;87.11
25084;BME280;13075;55.682;37.564;2022-09-09T14:20:47;100569.09;;;13.77;88.28
25084;BME280;13075;55.682;37.564;2022-09-09T14:23:13;100563.25;;;13.73;89.82
25084;BME280;13075;55.682;37.564;2022-09-09T14:25:42;100563.44;;;13.65;90.66
25084;BME280;13075;55.682;37.564;2022-09-09T14:28:13;100555.50;;;13.57;90.52
25084;BME280;13075;55.682;37.564;2022-09-09T14:30:40;100563.56;;;13.57;93.34
25084;BME280;13075;55.682;37.564;2022-09-09T14:33:10;100558.13;;;13.50;95.88
25084;BME280;13075;55.682;37.564;2022-09-09T14:35:36;100560.38;;;13.47;93.67
25084;BME280;13075;55.682;37.564;2022-09-09T14:38:03;100561.13;;;13.41;99.15
25084;BME280;13075;55.682;37.564;2022-09-09T14:40:29;100565.03;;;13.38;99.72
25084;BME280;13075;55.682;37.564;2022-09-09T14:42:55;100556.78;;;13.40;97.66
25084;BME280;13075;55.682;37.564;2022-09-09T14:45:25;100562.63;;;13.43;97.54
25084;BME280;13075;55.682;37.564;2022-09-09T14:47:52;100557.94;;;13.52;97.40
25084;BME280;13075;55.682;37.564;2022-09-09T14:50:19;100560.63;;;13.52;100.00
25084;BME280;13075;55.682;37.564;2022-09-09T14:52:45;100551.91;;;13.50;100.00
25084;BME280;13075;55.682;37.564;2022-09-09T14:55:10;100558.59;;;13.60;100.00
25084;BME280;13075;55.682;37.564;2022-09-09T14:57:37;100556.06;;;13.52;100.00
25084;BME280;13075;55.682;37.564;2022-09-09T15:00:04;100554.59;;;13.50;100.00
25084;BME280;13075;55.682;37.564;2022-09-09T15:02:31;100554.59;;;13.50;100.00